createdAt,value
2022-10-01T00:01:47.999Z,22.47
2022-10-01T00:04:16.162Z,22.48
2022-10-01T00:06:44.229Z,22.48
2022-10-01T00:09:12.196Z,22.48
2022-10-01T00:11:41.345Z,22.47
2022-10-01T00:14:09.768Z,22.46
2022-10-01T00:16:38.014Z,22.45
2022-10-01T00:19:06.034Z,22.44
2022-10-01T00:21:34.203Z,22.46
2022-10-01T00:24:04.778Z,22.47
2022-10-01T00:26:34.272Z,22.46
2022-10-01T00:29:04.284Z,22.45
2022-10-01T00:31:33.253Z,22.43
2022-10-01T00:34:03.346Z,22.43
2022-10-01T00:36:32.546Z,22.43
2022-10-01T00:39:01.442Z,22.43
2022-10-01T00:41:32.292Z,22.42
2022-10-01T00:44:03.027Z,22.40
2022-10-01T00:46:38.851Z,22.41
2022-10-01T00:49:11.184Z,22.40
2022-10-01T00:51:45.008Z,22.40
2022-10-01T00:54:17.560Z,22.40
2022-10-01T00:56:46.765Z,22.38
2022-10-01T00:59:16.012Z,22.37
2022-10-01T01:01:44.499Z,22.38
2022-10-01T01:04:16.215Z,22.38
2022-10-01T01:06:46.569Z,22.38
2022-10-01T01:09:14.841Z,22.39
2022-10-01T01:11:54.361Z,22.39
2022-10-01T01:14:31.838Z,22.38
2022-10-01T01:17:08.042Z,22.36
2022-10-01T01:19:53.125Z,22.35
2022-10-01T01:22:26.482Z,22.35
2022-10-01T01:24:59.905Z,22.35
2022-10-01T01:27:34.739Z,22.36
2022-10-01T01:30:05.506Z,22.35
2022-10-01T01:32:45.725Z,22.35
2022-10-01T01:35:19.637Z,22.35
2022-10-01T01:37:53.868Z,22.34
2022-10-01T01:40:24.089Z,22.34
2022-10-01T01:42:53.826Z,22.34
2022-10-01T01:45:28.914Z,22.31
2022-10-01T01:48:00.107Z,22.33
2022-10-01T01:50:34.091Z,22.31
2022-10-01T01:53:02.479Z,22.31
2022-10-01T01:55:31.608Z,22.32
2022-10-01T01:58:00.621Z,22.32
2022-10-01T02:00:29.421Z,22.31
2022-10-01T02:02:58.488Z,22.31
2022-10-01T02:05:32.011Z,22.31
2022-10-01T02:08:29.901Z,22.32
2022-10-01T02:11:16.426Z,22.32
2022-10-01T02:13:51.926Z,22.31
2022-10-01T02:16:34.912Z,22.33
2022-10-01T02:19:12.994Z,22.31
2022-10-01T02:21:48.649Z,22.34
2022-10-01T02:24:27.474Z,22.34
2022-10-01T02:26:57.136Z,22.33
2022-10-01T02:29:26.223Z,22.33
2022-10-01T02:31:56.377Z,22.35
2022-10-01T02:34:29.122Z,22.36
2022-10-01T02:37:00.215Z,22.36
2022-10-01T02:39:30.836Z,22.36
2022-10-01T02:42:00.555Z,22.36
2022-10-01T02:44:37.178Z,22.36
2022-10-01T02:47:09.839Z,22.34
2022-10-01T02:49:40.691Z,22.33
2022-10-01T02:52:14.336Z,22.32
2022-10-01T02:54:45.210Z,22.33
2022-10-01T02:57:24.265Z,22.30
2022-10-01T02:59:53.882Z,22.31
2022-10-01T03:02:22.901Z,22.33
2022-10-01T03:04:50.932Z,22.33
2022-10-01T03:07:19.231Z,22.33
2022-10-01T03:09:47.178Z,22.34
2022-10-01T03:12:16.528Z,22.33
2022-10-01T03:14:45.308Z,22.30
2022-10-01T03:17:14.397Z,22.36
2022-10-01T03:19:42.657Z,22.39
2022-10-01T03:22:13.429Z,22.39
2022-10-01T03:24:41.432Z,22.40
2022-10-01T03:27:09.351Z,22.39
2022-10-01T03:29:37.648Z,22.38
2022-10-01T03:32:05.642Z,22.37
2022-10-01T03:34:33.841Z,22.33
2022-10-01T03:37:01.870Z,22.36
2022-10-01T03:39:29.903Z,22.35
2022-10-01T03:41:58.341Z,22.34
2022-10-01T03:44:27.779Z,22.33
2022-10-01T03:46:56.134Z,22.33
2022-10-01T03:49:24.414Z,22.33
2022-10-01T03:51:52.372Z,22.34
2022-10-01T03:54:20.588Z,22.34
2022-10-01T03:56:48.632Z,22.34
2022-10-01T03:59:16.591Z,22.33
2022-10-01T04:01:44.513Z,22.31
2022-10-01T04:04:12.977Z,22.31
2022-10-01T04:06:41.440Z,22.31
2022-10-01T04:09:09.486Z,22.31
2022-10-01T04:11:38.376Z,22.30
2022-10-01T04:14:06.404Z,22.28
2022-10-01T04:16:35.527Z,22.28
2022-10-01T04:19:04.868Z,22.26
2022-10-01T04:21:33.400Z,22.25
2022-10-01T04:24:04.502Z,22.26
2022-10-01T04:26:32.631Z,22.24
2022-10-01T04:29:00.914Z,22.24
2022-10-01T04:31:34.181Z,22.23
2022-10-01T04:34:02.954Z,22.21
2022-10-01T04:36:30.922Z,22.20
2022-10-01T04:39:02.066Z,22.20
2022-10-01T04:41:31.377Z,22.20
2022-10-01T04:44:00.749Z,22.21
2022-10-01T04:46:29.887Z,22.20
2022-10-01T04:48:57.961Z,22.20
2022-10-01T04:51:26.093Z,22.20
2022-10-01T04:53:55.090Z,22.20
2022-10-01T04:56:23.053Z,22.21
2022-10-01T04:58:51.312Z,22.22
2022-10-01T05:01:19.235Z,22.21
2022-10-01T05:03:47.187Z,22.22
2022-10-01T05:06:15.241Z,22.22
2022-10-01T05:08:43.478Z,22.23
2022-10-01T05:11:11.734Z,22.23
2022-10-01T05:13:39.811Z,22.24
2022-10-01T05:16:08.359Z,22.22
2022-10-01T05:18:36.335Z,22.22
2022-10-01T05:21:06.941Z,22.22
2022-10-01T05:23:35.076Z,22.24
2022-10-01T05:26:05.126Z,22.25
2022-10-01T05:28:33.493Z,22.25
2022-10-01T05:31:02.004Z,22.24
2022-10-01T05:33:31.032Z,22.24
2022-10-01T05:35:59.025Z,22.25
2022-10-01T05:38:27.123Z,22.31
2022-10-01T05:40:55.200Z,22.32
2022-10-01T05:43:24.986Z,22.29
2022-10-01T05:45:53.123Z,22.26
2022-10-01T05:48:21.796Z,22.23
2022-10-01T05:50:49.739Z,22.23
2022-10-01T05:53:17.832Z,22.22
2022-10-01T05:55:45.872Z,22.22
2022-10-01T05:58:14.978Z,22.22
2022-10-01T06:00:43.651Z,22.23
2022-10-01T06:03:12.877Z,22.23
2022-10-01T06:05:43.793Z,22.24
2022-10-01T06:08:12.146Z,22.24
2022-10-01T06:10:40.713Z,22.24
2022-10-01T06:13:08.844Z,22.25
2022-10-01T06:15:38.561Z,22.23
2022-10-01T06:18:08.842Z,22.20
2022-10-01T06:20:37.852Z,22.23
2022-10-01T06:23:09.548Z,22.23
2022-10-01T06:25:38.030Z,22.23
2022-10-01T06:28:07.935Z,22.17
2022-10-01T06:30:38.162Z,22.27
2022-10-01T06:33:09.163Z,22.27
2022-10-01T06:35:42.793Z,22.28
2022-10-01T06:38:11.598Z,22.28
2022-10-01T06:40:40.391Z,22.28
2022-10-01T06:43:09.172Z,22.29
2022-10-01T06:45:40.015Z,22.34
2022-10-01T06:48:10.582Z,22.37
2022-10-01T06:50:38.609Z,22.37
2022-10-01T06:53:06.700Z,22.36
2022-10-01T06:55:36.721Z,22.35
2022-10-01T06:58:07.122Z,22.32
2022-10-01T07:00:38.425Z,22.32
2022-10-01T07:03:10.255Z,22.31
2022-10-01T07:05:39.052Z,22.31
2022-10-01T07:08:07.990Z,22.30
2022-10-01T07:10:37.583Z,22.30
2022-10-01T07:13:10.415Z,22.30
2022-10-01T07:15:39.051Z,22.28
2022-10-01T07:18:09.219Z,22.26
2022-10-01T07:20:39.296Z,22.26
2022-10-01T07:23:09.925Z,22.24
2022-10-01T07:25:39.599Z,22.22
2022-10-01T07:28:15.484Z,22.23
2022-10-01T07:30:47.322Z,22.21
2022-10-01T07:33:18.877Z,22.19
2022-10-01T07:35:47.716Z,22.19
2022-10-01T07:38:16.296Z,22.17
2022-10-01T07:40:44.560Z,22.15
2022-10-01T07:43:13.967Z,22.14
2022-10-01T07:45:42.219Z,22.13
2022-10-01T07:48:10.659Z,22.13
2022-10-01T07:50:38.810Z,22.12
2022-10-01T07:53:06.831Z,22.12
2022-10-01T07:55:35.705Z,22.10
2022-10-01T07:58:04.393Z,22.11
2022-10-01T08:00:34.033Z,22.11
2022-10-01T08:03:02.422Z,22.12
2022-10-01T08:05:31.997Z,22.13
2022-10-01T08:08:01.599Z,22.14
2022-10-01T08:10:31.727Z,22.15
2022-10-01T08:13:08.332Z,22.19
2022-10-01T08:15:36.493Z,22.22
2022-10-01T08:18:05.182Z,22.23
2022-10-01T08:20:33.668Z,22.25
2022-10-01T08:23:05.748Z,22.27
2022-10-01T08:25:34.326Z,22.30
2022-10-01T08:28:03.161Z,22.33
2022-10-01T08:30:32.086Z,22.34
2022-10-01T08:33:01.238Z,22.36
2022-10-01T08:35:30.013Z,22.38
2022-10-01T08:38:03.304Z,22.40
2022-10-01T08:40:36.269Z,22.42
2022-10-01T08:43:06.866Z,22.44
2022-10-01T08:45:42.516Z,22.46
2022-10-01T08:48:18.961Z,22.48
2022-10-01T08:50:53.085Z,22.50
2022-10-01T08:53:31.938Z,22.51
2022-10-01T08:56:02.334Z,22.54
2022-10-01T08:58:40.299Z,22.55
2022-10-01T09:01:10.981Z,22.57
2022-10-01T09:03:40.164Z,22.59
2022-10-01T09:06:19.391Z,22.60
2022-10-01T09:09:17.438Z,22.60
2022-10-01T09:11:51.655Z,22.60
2022-10-01T09:14:31.671Z,22.57
2022-10-01T09:17:10.294Z,22.58
2022-10-01T09:19:56.640Z,22.60
2022-10-01T09:22:31.621Z,22.60
2022-10-01T09:25:09.792Z,22.63
2022-10-01T09:27:39.102Z,22.65
2022-10-01T09:30:13.755Z,22.67
2022-10-01T09:32:45.629Z,22.67
2022-10-01T09:35:29.014Z,22.68
2022-10-01T09:38:02.620Z,22.68
2022-10-01T09:40:36.482Z,22.67
2022-10-01T09:43:07.464Z,22.71
2022-10-01T09:45:36.931Z,22.74
2022-10-01T09:48:16.968Z,22.75
2022-10-01T09:50:55.738Z,22.76
2022-10-01T09:53:31.231Z,22.77
2022-10-01T09:56:04.565Z,22.79
2022-10-01T09:58:38.035Z,22.80
2022-10-01T10:01:17.597Z,22.77
2022-10-01T10:03:55.539Z,22.74
2022-10-01T10:06:27.595Z,22.76
2022-10-01T10:08:57.921Z,22.79
2022-10-01T10:11:28.736Z,22.81
2022-10-01T10:13:59.785Z,22.82
2022-10-01T10:16:30.193Z,22.84
2022-10-01T10:19:01.795Z,22.86
2022-10-01T10:21:33.473Z,22.87
2022-10-01T10:24:03.756Z,22.88
2022-10-01T10:26:38.015Z,22.89
2022-10-01T10:29:08.930Z,22.91
2022-10-01T10:31:42.510Z,22.93
2022-10-01T10:34:16.425Z,22.94
2022-10-01T10:36:46.297Z,22.95
2022-10-01T10:39:23.350Z,22.96
2022-10-01T10:41:52.854Z,22.97
2022-10-01T10:44:24.496Z,22.99
2022-10-01T10:46:59.542Z,22.99
2022-10-01T10:49:30.773Z,23.00
2022-10-01T10:52:00.601Z,22.99
2022-10-01T10:54:32.420Z,23.00
2022-10-01T10:57:03.233Z,23.01
2022-10-01T10:59:33.498Z,23.03
2022-10-01T11:02:04.717Z,23.03
2022-10-01T11:04:40.030Z,23.04
2022-10-01T11:07:09.233Z,23.06
2022-10-01T11:09:54.512Z,23.06
2022-10-01T11:12:36.023Z,23.07
2022-10-01T11:15:16.971Z,23.08
2022-10-01T11:18:03.519Z,23.08
2022-10-01T11:20:40.027Z,23.04
2022-10-01T11:23:33.447Z,23.09
2022-10-01T11:26:15.916Z,23.09
2022-10-01T11:28:58.407Z,23.10
2022-10-01T11:31:36.805Z,23.11
2022-10-01T11:34:19.205Z,23.11
2022-10-01T11:36:56.072Z,23.11
2022-10-01T11:39:27.334Z,23.12
2022-10-01T11:42:01.758Z,23.13
2022-10-01T11:44:35.085Z,23.14
2022-10-01T11:47:08.303Z,23.16
2022-10-01T11:49:50.666Z,23.14
2022-10-01T11:52:33.272Z,23.10
2022-10-01T11:55:32.821Z,23.09
2022-10-01T11:58:24.812Z,23.09
2022-10-01T12:01:03.256Z,23.10
2022-10-01T12:03:38.888Z,23.12
2022-10-01T12:06:14.176Z,23.12
2022-10-01T12:08:47.652Z,23.13
2022-10-01T12:11:20.245Z,23.14
2022-10-01T12:13:56.123Z,23.14
2022-10-01T12:16:33.995Z,23.15
2022-10-01T12:19:06.416Z,23.16
2022-10-01T12:21:39.443Z,23.16
2022-10-01T12:24:14.055Z,23.13
2022-10-01T12:26:52.234Z,23.07
2022-10-01T12:29:27.330Z,23.01
2022-10-01T12:32:05.134Z,22.99
2022-10-01T12:34:44.701Z,23.01
2022-10-01T12:37:21.168Z,23.02
2022-10-01T12:40:06.757Z,23.04
2022-10-01T12:42:50.000Z,23.05
2022-10-01T12:45:28.354Z,23.06
2022-10-01T12:48:07.216Z,23.07
2022-10-01T12:50:46.874Z,23.07
2022-10-01T12:53:31.206Z,23.06
2022-10-01T12:56:16.173Z,23.07
2022-10-01T12:59:13.511Z,23.07
2022-10-01T13:01:52.349Z,23.07
2022-10-01T13:04:44.362Z,23.09
2022-10-01T13:07:34.950Z,23.09
2022-10-01T13:10:15.271Z,23.08
2022-10-01T13:12:59.373Z,23.09
2022-10-01T13:15:34.389Z,23.10
2022-10-01T13:18:14.126Z,23.11
2022-10-01T13:20:45.180Z,23.10
2022-10-01T13:23:21.748Z,23.09
2022-10-01T13:26:02.930Z,23.09
2022-10-01T13:28:44.033Z,23.10
2022-10-01T13:31:14.152Z,23.12
2022-10-01T13:33:53.161Z,23.15
2022-10-01T13:36:30.370Z,23.13
2022-10-01T13:38:58.506Z,23.20
2022-10-01T13:41:30.562Z,23.23
2022-10-01T13:44:04.798Z,23.28
2022-10-01T13:46:36.965Z,23.31
2022-10-01T13:49:16.878Z,23.34
2022-10-01T13:51:45.987Z,23.36
2022-10-01T13:54:27.061Z,23.38
2022-10-01T13:56:55.372Z,23.42
2022-10-01T13:59:33.051Z,23.43
2022-10-01T14:02:02.399Z,23.46
2022-10-01T14:04:37.396Z,23.50
2022-10-01T14:07:15.926Z,23.51
2022-10-01T14:09:46.299Z,23.46
2022-10-01T14:12:38.992Z,23.42
2022-10-01T14:15:35.209Z,23.41
2022-10-01T14:18:07.080Z,23.45
2022-10-01T14:20:51.729Z,23.51
2022-10-01T14:23:25.571Z,23.54
2022-10-01T14:25:59.720Z,23.58
2022-10-01T14:28:47.568Z,23.61
2022-10-01T14:31:22.859Z,23.64
2022-10-01T14:34:13.934Z,23.68
2022-10-01T14:36:45.379Z,23.71
2022-10-01T14:39:16.661Z,23.74
2022-10-01T14:41:45.736Z,23.76
2022-10-01T14:44:22.031Z,23.79
2022-10-01T14:46:50.591Z,23.84
2022-10-01T14:49:25.426Z,23.87
2022-10-01T14:51:59.532Z,23.90
2022-10-01T14:54:28.779Z,23.92
2022-10-01T14:56:57.511Z,23.95
2022-10-01T14:59:32.632Z,23.99
2022-10-01T15:02:24.280Z,24.01
2022-10-01T15:04:55.980Z,24.04
2022-10-01T15:07:25.641Z,24.08
2022-10-01T15:09:53.800Z,24.10
2022-10-01T15:12:23.732Z,24.14
2022-10-01T15:14:55.204Z,24.15
2022-10-01T15:17:26.870Z,24.17
2022-10-01T15:19:57.911Z,24.19
2022-10-01T15:22:30.006Z,24.22
2022-10-01T15:25:01.071Z,24.25
2022-10-01T15:27:29.525Z,24.28
2022-10-01T15:29:59.128Z,24.29
2022-10-01T15:32:28.572Z,24.29
2022-10-01T15:35:00.591Z,24.29
2022-10-01T15:37:31.917Z,24.29
2022-10-01T15:40:01.429Z,24.30
2022-10-01T15:42:32.271Z,24.32
2022-10-01T15:45:22.476Z,24.33
2022-10-01T15:47:51.728Z,24.34
2022-10-01T15:50:22.977Z,24.34
2022-10-01T15:53:01.498Z,24.36
2022-10-01T15:55:33.894Z,24.36
2022-10-01T15:58:15.336Z,24.37
2022-10-01T16:00:57.251Z,24.37
2022-10-01T16:03:30.694Z,24.38
2022-10-01T16:06:01.459Z,24.39
2022-10-01T16:08:33.987Z,24.40
2022-10-01T16:11:20.726Z,24.40
2022-10-01T16:13:50.020Z,24.39
2022-10-01T16:16:25.607Z,24.39
2022-10-01T16:18:56.798Z,24.40
2022-10-01T16:21:25.229Z,24.41
2022-10-01T16:23:54.640Z,24.42
2022-10-01T16:26:40.502Z,24.43
2022-10-01T16:29:23.814Z,24.45
2022-10-01T16:31:52.665Z,24.47
2022-10-01T16:34:21.619Z,24.48
2022-10-01T16:36:50.106Z,24.50
2022-10-01T16:39:18.445Z,24.52
2022-10-01T16:42:06.229Z,24.53
2022-10-01T16:44:40.141Z,24.53
2022-10-01T16:47:11.490Z,24.54
2022-10-01T16:49:40.792Z,24.58
2022-10-01T16:52:15.952Z,24.61
2022-10-01T16:54:46.762Z,24.62
2022-10-01T16:57:15.981Z,24.64
2022-10-01T16:59:44.199Z,24.65
2022-10-01T17:02:13.996Z,24.65
2022-10-01T17:04:42.556Z,24.68
2022-10-01T17:07:10.839Z,24.71
2022-10-01T17:09:39.114Z,24.72
2022-10-01T17:12:07.397Z,24.74
2022-10-01T17:14:35.578Z,24.74
2022-10-01T17:17:03.758Z,24.75
2022-10-01T17:19:32.245Z,24.76
2022-10-01T17:22:00.527Z,24.76
2022-10-01T17:24:28.914Z,24.77
2022-10-01T17:26:57.141Z,24.78
2022-10-01T17:29:26.134Z,24.79
2022-10-01T17:31:54.418Z,24.78
2022-10-01T17:34:23.365Z,24.79
2022-10-01T17:36:51.662Z,24.79
2022-10-01T17:39:19.889Z,24.79
2022-10-01T17:41:50.669Z,24.79
2022-10-01T17:44:19.160Z,24.80
2022-10-01T17:46:47.696Z,24.80
2022-10-01T17:49:16.377Z,24.80
2022-10-01T17:51:44.847Z,24.81
2022-10-01T17:54:13.257Z,24.81
2022-10-01T17:56:41.594Z,24.81
2022-10-01T17:59:10.489Z,24.80
2022-10-01T18:01:41.108Z,24.79
2022-10-01T18:04:11.968Z,24.79
2022-10-01T18:06:40.452Z,24.79
2022-10-01T18:09:08.847Z,24.79
2022-10-01T18:11:37.942Z,24.79
2022-10-01T18:14:07.220Z,24.79
2022-10-01T18:16:36.139Z,24.78
2022-10-01T18:21:54.194Z,24.77
2022-10-01T18:24:22.381Z,24.75
2022-10-01T18:26:50.877Z,24.73
2022-10-01T18:29:21.365Z,24.72
2022-10-01T18:31:53.496Z,24.70
2022-10-01T18:34:29.829Z,24.73
2022-10-01T18:37:03.787Z,24.72
2022-10-01T18:39:36.662Z,24.73
2022-10-01T18:42:14.878Z,24.72
2022-10-01T18:44:43.018Z,24.71
2022-10-01T18:47:25.522Z,24.70
2022-10-01T18:50:13.478Z,24.69
2022-10-01T18:52:53.050Z,24.68
2022-10-01T18:55:33.651Z,24.68
2022-10-01T18:58:30.694Z,24.66
2022-10-01T19:01:11.666Z,24.65
2022-10-01T19:04:05.714Z,24.64
2022-10-01T19:06:49.111Z,24.64
2022-10-01T19:09:32.488Z,24.64
2022-10-01T19:12:15.398Z,24.63
2022-10-01T19:14:55.910Z,24.61
2022-10-01T19:17:40.419Z,24.60
2022-10-01T19:20:21.013Z,24.59
2022-10-01T19:23:04.703Z,24.59
2022-10-01T19:25:41.194Z,24.58
2022-10-01T19:28:27.143Z,24.57
2022-10-01T19:31:08.547Z,24.57
2022-10-01T19:33:44.235Z,24.58
2022-10-01T19:36:21.556Z,24.57
2022-10-01T19:38:53.979Z,24.58
2022-10-01T19:41:28.158Z,24.53
2022-10-01T19:44:00.457Z,24.55
2022-10-01T19:46:34.335Z,24.55
2022-10-01T19:49:12.775Z,24.54
2022-10-01T19:51:45.330Z,24.52
2022-10-01T19:54:16.345Z,24.50
2022-10-01T19:56:46.472Z,24.50
2022-10-01T19:59:18.811Z,24.50
2022-10-01T20:01:55.115Z,24.48
2022-10-01T20:04:33.973Z,24.48
2022-10-01T20:07:10.266Z,24.47
2022-10-01T20:09:45.214Z,24.46
2022-10-01T20:12:22.760Z,24.47
2022-10-01T20:15:11.443Z,24.46
2022-10-01T20:17:50.194Z,24.42
2022-10-01T20:20:26.128Z,24.44
2022-10-01T20:23:08.327Z,24.43
2022-10-01T20:25:43.643Z,24.42
2022-10-01T20:28:20.760Z,24.42
2022-10-01T20:30:58.757Z,24.42
2022-10-01T20:33:34.477Z,24.41
2022-10-01T20:36:12.597Z,24.40
2022-10-01T20:38:48.239Z,24.40
2022-10-01T20:41:19.594Z,24.40
2022-10-01T20:43:50.093Z,24.40
2022-10-01T20:46:23.290Z,24.39
2022-10-01T20:48:57.934Z,24.39
2022-10-01T20:51:32.483Z,24.37
2022-10-01T20:54:06.753Z,24.34
2022-10-01T20:56:39.403Z,24.31
2022-10-01T20:59:17.025Z,24.31
2022-10-01T21:01:53.500Z,24.31
2022-10-01T21:04:27.753Z,24.31
2022-10-01T21:07:01.371Z,24.30
2022-10-01T21:09:31.130Z,24.29
2022-10-01T21:12:05.786Z,24.26
2022-10-01T21:14:40.153Z,24.25
2022-10-01T21:17:21.690Z,24.23
2022-10-01T21:20:03.569Z,24.21
2022-10-01T21:22:46.235Z,24.20
2022-10-01T21:25:28.498Z,24.16
2022-10-01T21:28:25.873Z,24.18
2022-10-01T21:31:10.467Z,24.17
2022-10-01T21:33:51.418Z,24.16
2022-10-01T21:36:27.500Z,24.14
2022-10-01T21:39:00.019Z,24.12
2022-10-01T21:41:41.214Z,24.11
2022-10-01T21:44:36.801Z,24.09
2022-10-01T21:47:14.320Z,24.06
2022-10-01T21:49:53.016Z,24.03
2022-10-01T21:52:33.922Z,24.01
2022-10-01T21:55:24.007Z,24.00
2022-10-01T21:58:08.216Z,23.99
2022-10-01T22:00:36.509Z,23.96
2022-10-01T22:03:14.012Z,23.96
2022-10-01T22:05:50.685Z,23.95
2022-10-01T22:08:44.004Z,23.95
2022-10-01T22:11:17.035Z,23.93
2022-10-01T22:13:51.260Z,23.91
2022-10-01T22:16:21.973Z,23.90
2022-10-01T22:18:51.473Z,23.89
2022-10-01T22:21:24.877Z,23.87
2022-10-01T22:24:01.432Z,23.85
2022-10-01T22:26:34.560Z,23.83
2022-10-01T22:29:07.251Z,23.82
2022-10-01T22:31:36.924Z,23.81
2022-10-01T22:34:11.951Z,23.79
2022-10-01T22:36:46.125Z,23.77
2022-10-01T22:39:19.328Z,23.77
2022-10-01T22:41:51.382Z,23.76
2022-10-01T22:44:22.780Z,23.74
2022-10-01T22:47:24.020Z,23.74
2022-10-01T22:50:14.625Z,23.71
2022-10-01T22:52:53.466Z,23.71
2022-10-01T22:55:30.513Z,23.70
2022-10-01T22:58:24.447Z,23.69
2022-10-01T23:01:04.601Z,23.68
2022-10-01T23:03:44.785Z,23.67
2022-10-01T23:06:23.838Z,23.65
2022-10-01T23:09:02.847Z,23.64
2022-10-01T23:11:37.827Z,23.64
2022-10-01T23:14:19.118Z,23.63
2022-10-01T23:16:55.252Z,23.62
2022-10-01T23:19:39.502Z,23.62
2022-10-01T23:22:13.391Z,23.59
2022-10-01T23:24:54.851Z,23.58
2022-10-01T23:27:35.217Z,23.57
2022-10-01T23:30:10.988Z,23.56
2022-10-01T23:33:18.133Z,23.53
2022-10-01T23:35:56.426Z,23.51
2022-10-01T23:38:46.965Z,23.51
2022-10-01T23:41:23.634Z,23.49
2022-10-01T23:43:56.810Z,23.49
2022-10-01T23:46:30.603Z,23.49
2022-10-01T23:49:04.209Z,23.49
2022-10-01T23:51:34.440Z,23.49
2022-10-01T23:54:11.142Z,23.45
2022-10-01T23:56:50.204Z,23.45
2022-10-01T23:59:27.527Z,23.46
